Impacts TAF Board INFO
FOR SITUATIONAL AWARENESS. NOT TO BE USED FOR FLIGHT PLANNING PURPOSES.
IDs:

KISP - Islip/Macarthur Arpt, NY, US

Issued at 1725 UTC 18 Feb 2018
Updated at 1956 UTC 18 Feb 2018
Potential Impact None Slight Moderate High
Time<<19/08Z 19/09Z 19/10Z 19/11Z 19/12Z 19/13Z 19/14Z 19/15Z 19/16Z 19/17Z 19/18Z 19/19Z 19/20Z>>
Type PRVL PRVL PRVL PRVL PRVL PRVL PRVL PRVL PRVL PRVL
VIS >6 >6 >6 >6 >6 >6 >6 >6 >6 >6
CIG -- -- -- -- -- 250 250 250 250 250
Cover SCT SCT SCT SCT SCT BKN BKN BKN BKN BKN
FltCat VFR VFR VFR VFR VFR VFR VFR VFR VFR VFR
WX -- -- -- -- -- -- -- -- -- --
WDir VRB VRB VRB VRB VRB 180 180 180 180 180
WSpd 3 3 3 3 3 8 8 8 8 8
WGst -- -- -- -- -- -- -- -- -- --

Raw TAF
KISP 181725Z 1818/1918 30010KT P6SM SKC
  FM182300 VRB03KT P6SM SCT250
  FM191300 18008KT P6SM BKN250


METAR Board
Radar Display
Forecast Discussion

FOR SITUATIONAL AWARENESS. NOT TO BE USED FOR FLIGHT PLANNING PURPOSES.